Time;durP1;ratioP1;P1;durP2;ratioP2;P2;SDS_P1;SDS_P2;PMS_P1;PMS_P2;Temp;Humidity;BMP_temperature;BMP_pressure;BME280_temperature;BME280_humidity;BME280_pressure;Samples;Min_cycle;Max_cycle;Signal;HPM_P1;HPM_P2
2022/04/08 00:02:08;;;;;;;4.40;0.98;;;;;;;19.66;43.14;99693.56;5014107;28;20682;-58
2022/04/08 00:04:34;;;;;;;4.05;1.08;;;;;;;19.68;42.95;99700.34;5014240;28;20481;-58
2022/04/08 00:07:00;;;;;;;3.90;1.35;;;;;;;19.65;42.87;99711.25;5013459;28;20022;-58
2022/04/08 00:09:25;;;;;;;5.07;0.85;;;;;;;19.65;42.90;99711.25;5014433;28;20400;-59
2022/04/08 00:11:51;;;;;;;4.55;1.10;;;;;;;19.63;42.98;99713.22;5013731;28;20030;-59
2022/04/08 00:14:20;;;;;;;4.43;1.10;;;;;;;19.61;42.67;99731.03;5013265;28;20486;-58
2022/04/08 00:16:48;;;;;;;4.22;0.80;;;;;;;19.60;43.01;99731.22;5014147;28;20022;-58
2022/04/08 00:19:14;;;;;;;6.40;1.40;;;;;;;19.59;42.91;99735.69;5014070;28;20507;-58
2022/04/08 00:21:42;;;;;;;3.88;0.90;;;;;;;19.58;43.06;99741.94;5013672;28;20109;-58
2022/04/08 00:24:07;;;;;;;6.20;1.33;;;;;;;19.56;42.99;99747.38;5013872;28;20097;-58
2022/04/08 00:26:33;;;;;;;4.82;1.10;;;;;;;19.54;42.98;99746.72;5014131;28;20506;-58
2022/04/08 00:28:58;;;;;;;3.90;1.00;;;;;;;19.52;42.75;99743.44;5012911;28;20026;-58
2022/04/08 00:31:24;;;;;;;3.90;1.00;;;;;;;19.52;42.84;99748.72;5013955;28;20072;-58
2022/04/08 00:33:49;;;;;;;4.22;1.13;;;;;;;19.51;42.86;99744.41;5013606;28;20057;-59
2022/04/08 00:36:15;;;;;;;4.20;0.90;;;;;;;19.50;43.13;99740.13;5013233;28;20079;-59
2022/04/08 00:38:40;;;;;;;4.95;1.17;;;;;;;19.48;42.84;99752.66;5013739;28;20470;-58
2022/04/08 00:41:08;;;;;;;3.57;0.93;;;;;;;19.48;42.88;99749.19;5013479;28;20076;-58
2022/04/08 00:43:40;;;;;;;3.33;1.00;;;;;;;19.47;42.96;99752.81;5012930;28;20299;-58
2022/04/08 00:46:09;;;;;;;7.05;1.25;;;;;;;19.45;42.99;99768.81;5013245;28;20026;-58
2022/04/08 00:48:36;;;;;;;5.72;1.48;;;;;;;19.45;43.00;99768.00;5013784;28;20125;-58
2022/04/08 00:51:04;;;;;;;5.38;1.15;;;;;;;19.44;42.91;99774.25;5012682;28;20026;-58
2022/04/08 00:53:30;;;;;;;4.57;1.00;;;;;;;19.41;43.01;99770.13;5013662;28;20152;-58
2022/04/08 00:55:56;;;;;;;5.60;1.17;;;;;;;19.44;42.90;99776.91;5012429;28;20421;-59
2022/04/08 00:58:22;;;;;;;5.22;1.38;;;;;;;19.43;43.00;99781.38;5013371;28;20034;-59
2022/04/08 01:00:47;;;;;;;4.82;1.20;;;;;;;19.41;42.90;99778.06;5013276;28;20080;-58
2022/04/08 01:03:13;;;;;;;5.00;1.40;;;;;;;19.42;42.85;99786.81;5012710;28;20033;-58
2022/04/08 01:05:39;;;;;;;5.38;0.95;;;;;;;19.39;42.91;99775.59;5013580;28;20275;-58
2022/04/08 01:08:07;;;;;;;2.85;0.93;;;;;;;19.39;43.04;99786.16;5013059;28;20026;-58
2022/04/08 01:10:33;;;;;;;5.07;1.20;;;;;;;19.37;42.86;99785.47;5012640;28;20118;-58
2022/04/08 01:12:58;;;;;;;4.65;1.50;;;;;;;19.36;42.87;99798.84;5012781;28;20081;-58
2022/04/08 01:15:25;;;;;;;4.47;1.15;;;;;;;19.34;42.92;99796.38;5013154;28;20436;-58
2022/04/08 01:17:51;;;;;;;4.75;1.20;;;;;;;19.34;42.83;99806.94;5012138;28;20492;-58
2022/04/08 01:20:16;;;;;;;3.60;1.02;;;;;;;19.34;43.04;99804.31;5013236;28;20108;-58
2022/04/08 01:22:42;;;;;;;5.32;1.20;;;;;;;19.32;42.72;99803.59;5012320;28;20048;-59
2022/04/08 01:25:09;;;;;;;5.72;1.30;;;;;;;19.32;43.00;99805.44;5012005;28;20033;-59
2022/04/08 01:27:37;;;;;;;3.22;0.95;;;;;;;19.30;42.80;99810.06;5013004;28;20022;-58
2022/04/08 01:30:08;;;;;;;4.97;1.13;;;;;;;19.30;42.64;99810.06;5012589;28;20497;-58
2022/04/08 01:32:34;;;;;;;5.05;1.27;;;;;;;19.31;42.76;99816.97;5012217;28;20577;-59
2022/04/08 01:34:59;;;;;;;4.95;0.98;;;;;;;19.29;42.93;99818.94;5012883;28;20053;-59
2022/04/08 01:37:25;;;;;;;5.28;1.10;;;;;;;19.26;42.67;99816.63;5012889;28;20109;-58
2022/04/08 01:39:53;;;;;;;5.35;1.23;;;;;;;19.26;42.61;99821.91;5011911;28;20022;-58
2022/04/08 01:42:23;;;;;;;4.10;1.15;;;;;;;19.24;42.72;99822.06;5012638;28;20022;-58
2022/04/08 01:44:49;;;;;;;3.70;1.10;;;;;;;19.24;42.84;99824.69;5012662;28;20385;-58
2022/04/08 01:47:17;;;;;;;7.65;1.50;;;;;;;19.24;43.03;99821.25;5012218;28;20026;-58
2022/04/08 01:49:43;;;;;;;5.07;1.20;;;;;;;19.23;42.80;99819.56;5012852;28;20022;-59
2022/04/08 01:52:08;;;;;;;4.07;1.13;;;;;;;19.24;42.88;99824.69;5011903;28;20081;-59
2022/04/08 01:54:34;;;;;;;4.75;1.20;;;;;;;19.25;43.08;99822.88;5012926;28;20018;-59
2022/04/08 01:56:59;;;;;;;5.43;1.20;;;;;;;19.28;42.90;99833.97;5012308;28;20026;-59
2022/04/08 01:59:24;;;;;;;4.40;1.40;;;;;;;19.32;43.12;99832.66;5012185;28;20076;-59
2022/04/08 02:01:50;;;;;;;5.05;1.33;;;;;;;19.36;42.94;99835.84;5012655;28;20113;-59
2022/04/08 02:04:15;;;;;;;4.63;1.27;;;;;;;19.38;42.83;99837.31;5012885;28;20034;-59
2022/04/08 02:06:42;;;;;;;5.20;1.27;;;;;;;19.43;42.89;99847.44;5012429;28;20612;-58
2022/04/08 02:09:08;;;;;;;5.78;1.65;;;;;;;19.45;42.53;99842.81;5012648;28;20037;-57
2022/04/08 02:11:35;;;;;;;6.05;1.38;;;;;;;19.47;42.58;99847.94;5012819;28;20034;-58
2022/04/08 02:14:01;;;;;;;4.35;1.50;;;;;;;19.47;42.47;99846.13;5011490;28;20042;-57
2022/04/08 02:16:29;;;;;;;4.75;1.10;;;;;;;19.48;42.11;99853.06;5012820;28;20026;-57
2022/04/08 02:18:55;;;;;;;4.47;1.25;;;;;;;19.49;42.54;99852.09;5012358;28;20076;-58
2022/04/08 02:21:21;;;;;;;5.55;1.48;;;;;;;19.50;42.24;99847.63;5012363;28;20049;-57
2022/04/08 02:23:47;;;;;;;4.00;1.20;;;;;;;19.49;42.15;99854.72;5012814;28;20030;-58
2022/04/08 02:26:14;;;;;;;6.93;1.58;;;;;;;19.51;42.12;99857.22;5012400;28;20488;-57
2022/04/08 02:28:39;;;;;;;6.93;1.55;;;;;;;19.50;42.33;99859.03;5011960;28;20038;-57
2022/04/08 02:31:05;;;;;;;4.00;1.00;;;;;;;19.51;42.11;99854.56;5012175;28;20030;-58
2022/04/08 02:33:33;;;;;;;5.28;1.23;;;;;;;19.51;42.04;99859.84;5013309;28;20029;-57
2022/04/08 02:35:59;;;;;;;4.03;1.17;;;;;;;19.50;41.93;99853.75;5015198;28;20022;-58
2022/04/08 02:38:24;;;;;;;3.50;1.17;;;;;;;19.49;42.15;99856.56;5016080;28;20034;-58
2022/04/08 02:40:50;;;;;;;5.90;1.20;;;;;;;19.48;42.04;99855.69;5015744;28;20095;-59
2022/04/08 02:43:15;;;;;;;5.60;1.40;;;;;;;19.48;42.15;99857.53;5015510;28;20526;-60
2022/04/08 02:45:40;;;;;;;6.13;1.30;;;;;;;19.48;42.36;99865.44;5016060;28;20022;-59
2022/04/08 02:48:05;;;;;;;4.57;1.52;;;;;;;19.46;42.41;99864.78;5015683;28;20271;-58
2022/04/08 02:50:31;;;;;;;4.32;1.08;;;;;;;19.48;42.59;99871.56;5015231;28;20437;-59
2022/04/08 02:52:59;;;;;;;6.03;1.63;;;;;;;19.48;42.53;99863.63;5015419;28;20045;-58
2022/04/08 02:55:24;;;;;;;5.90;1.15;;;;;;;19.50;42.35;99866.13;5014936;28;20279;-59
2022/04/08 02:57:50;;;;;;;4.10;1.27;;;;;;;19.52;42.60;99872.09;5015181;28;20084;-58
2022/04/08 03:00:20;;;;;;;4.93;1.30;;;;;;;19.52;42.52;99875.56;5015357;28;20424;-59
2022/04/08 03:02:47;;;;;;;5.55;1.13;;;;;;;19.53;42.71;99873.72;5014668;28;20034;-58
2022/04/08 03:05:13;;;;;;;6.47;1.42;;;;;;;19.53;42.52;99869.25;5015111;28;20045;-59
2022/04/08 03:07:39;;;;;;;6.40;1.30;;;;;;;19.53;42.33;99879.84;5015261;28;20413;-59
2022/04/08 03:10:06;;;;;;;6.03;1.35;;;;;;;19.54;42.32;99872.75;5014192;28;20028;-59
2022/04/08 03:12:31;;;;;;;5.00;1.10;;;;;;;19.54;42.26;99880.69;5015210;28;20046;-60
2022/04/08 03:14:57;;;;;;;4.75;1.20;;;;;;;19.54;42.22;99868.28;5014911;28;20049;-59
2022/04/08 03:17:25;;;;;;;6.25;1.63;;;;;;;19.53;42.10;99871.09;5014416;28;20080;-59
2022/04/08 03:19:51;;;;;;;5.38;1.20;;;;;;;19.54;42.04;99865.66;5014869;28;20049;-59
2022/04/08 03:22:20;;;;;;;4.00;1.08;;;;;;;19.53;42.13;99869.25;5014791;28;20030;-58
2022/04/08 03:25:06;;;;;;;5.95;1.10;;;;;;;19.54;41.91;99886.78;5014454;28;20033;-59
2022/04/08 03:27:31;;;;;;;4.10;0.85;;;;;;;19.53;41.92;99886.94;5014939;28;20064;-59
2022/04/08 03:29:57;;;;;;;3.35;0.85;;;;;;;19.52;41.85;99883.47;5014644;28;20030;-58
2022/04/08 03:32:22;;;;;;;7.18;1.40;;;;;;;19.52;41.72;99885.31;5014044;28;20132;-59
2022/04/08 03:34:57;;;;;;;4.95;1.40;;;;;;;19.51;41.99;99895.03;5014766;28;20500;-58
2022/04/08 03:37:22;;;;;;;5.43;1.17;;;;;;;19.50;41.96;99896.03;5014920;28;20041;-58
2022/04/08 03:39:47;;;;;;;4.60;1.07;;;;;;;19.49;42.01;99890.91;5014188;28;20034;-57
2022/04/08 03:42:12;;;;;;;5.33;1.77;;;;;;;19.47;42.26;99898.13;5014461;28;20283;-58
2022/04/08 03:44:37;;;;;;;4.10;1.10;;;;;;;19.47;42.10;99895.50;5013633;28;20267;-58
2022/04/08 03:47:06;;;;;;;3.63;0.90;;;;;;;19.47;42.40;99896.34;5013807;28;20279;-58
2022/04/08 03:49:35;;;;;;;4.65;1.10;;;;;;;19.48;42.26;99890.06;5014454;28;20030;-57
2022/04/08 03:52:04;;;;;;;4.88;1.10;;;;;;;19.50;42.01;99900.47;5013456;28;20101;-58
2022/04/08 03:54:29;;;;;;;5.38;1.40;;;;;;;19.50;42.17;99906.59;5014426;28;20025;-58
2022/04/08 03:56:57;;;;;;;3.93;1.00;;;;;;;19.50;42.12;99903.97;5013901;28;20029;-57
2022/04/08 03:59:23;;;;;;;5.28;1.10;;;;;;;19.52;42.09;99906.44;5013213;28;20318;-58
2022/04/08 04:01:49;;;;;;;5.00;1.20;;;;;;;19.52;42.13;99911.72;5013907;28;20053;-58
2022/04/08 04:04:15;;;;;;;6.28;1.35;;;;;;;19.51;42.17;99912.72;5014378;28;20064;-58
2022/04/08 04:06:41;;;;;;;4.65;0.88;;;;;;;19.51;41.91;99905.59;5013557;28;20026;-58
2022/04/08 04:09:06;;;;;;;4.55;1.50;;;;;;;19.50;41.98;99905.75;5014043;28;20038;-58
2022/04/08 04:11:32;;;;;;;4.28;1.20;;;;;;;19.49;41.88;99904.13;5014279;28;20025;-58
2022/04/08 04:13:58;;;;;;;3.45;0.90;;;;;;;19.49;41.78;99902.28;5012732;28;20555;-58
2022/04/08 04:16:23;;;;;;;3.95;1.10;;;;;;;19.49;41.78;99897.00;5013907;28;20029;-58
2022/04/08 04:18:48;;;;;;;4.47;1.20;;;;;;;19.49;41.67;99898.84;5013693;28;20418;-58
2022/04/08 04:21:15;;;;;;;4.63;1.13;;;;;;;19.49;41.72;99898.84;5013174;28;20470;-59
2022/04/08 04:23:40;;;;;;;4.50;1.38;;;;;;;19.47;41.76;99901.63;5013752;28;20486;-58
2022/04/08 04:26:06;;;;;;;3.03;1.00;;;;;;;19.47;41.56;99892.84;5013359;28;20060;-58
2022/04/08 04:28:32;;;;;;;3.70;0.93;;;;;;;19.46;41.68;99889.38;5013024;28;20315;-58
2022/04/08 04:31:04;;;;;;;5.32;1.23;;;;;;;19.43;41.64;99892.34;5013308;28;20032;-58
2022/04/08 04:33:32;;;;;;;4.35;1.15;;;;;;;19.43;41.56;99889.69;5013748;28;20018;-58
2022/04/08 04:35:59;;;;;;;5.55;1.30;;;;;;;19.42;41.85;99892.50;5012728;28;20036;-58
2022/04/08 04:38:24;;;;;;;6.50;1.50;;;;;;;19.41;42.04;99907.53;5013426;28;20481;-58
2022/04/08 04:40:50;;;;;;;4.80;1.33;;;;;;;19.41;42.37;99902.25;5012486;28;20045;-58
2022/04/08 04:43:16;;;;;;;3.67;1.08;;;;;;;19.43;42.17;99908.19;5013632;28;20064;-58
2022/04/08 04:45:41;;;;;;;6.63;1.10;;;;;;;19.42;41.94;99901.25;5013451;28;20025;-59
2022/04/08 04:48:07;;;;;;;4.88;1.05;;;;;;;19.44;42.05;99906.38;5012518;28;20029;-58
2022/04/08 04:50:33;;;;;;;2.92;0.98;;;;;;;19.42;41.90;99903.88;5013597;28;20033;-58
2022/04/08 04:52:58;;;;;;;5.22;1.10;;;;;;;19.44;41.97;99907.22;5013181;28;20021;-59
2022/04/08 04:55:23;;;;;;;5.38;1.40;;;;;;;19.45;41.93;99903.56;5012636;28;20374;-58
2022/04/08 04:57:49;;;;;;;3.23;1.00;;;;;;;19.44;42.07;99901.94;5013020;28;20036;-59
2022/04/08 05:00:16;;;;;;;3.33;1.10;;;;;;;19.45;41.77;99902.75;5013152;28;20267;-59
2022/04/08 05:02:42;;;;;;;4.70;1.30;;;;;;;19.44;41.87;99901.94;5012517;28;20026;-58
2022/04/08 05:05:08;;;;;;;4.82;1.30;;;;;;;19.44;41.70;99896.66;5012852;28;20347;-57
2022/04/08 05:07:33;;;;;;;4.97;1.40;;;;;;;19.42;41.89;99892.50;5013093;28;20389;-57
2022/04/08 05:09:58;;;;;;;5.50;1.23;;;;;;;19.44;42.27;99894.00;5012029;28;20040;-58
2022/04/08 05:12:24;;;;;;;3.85;1.00;;;;;;;19.46;42.81;99894.69;5012812;28;20402;-58
2022/04/08 05:14:49;;;;;;;4.70;1.25;;;;;;;19.48;43.04;99900.63;5012573;28;20092;-58
2022/04/08 05:17:14;;;;;;;3.40;1.13;;;;;;;19.52;43.29;99898.53;5012106;28;20458;-59
2022/04/08 05:19:39;;;;;;;3.83;1.00;;;;;;;19.56;43.20;99895.38;5012676;28;20038;-59
2022/04/08 05:22:05;;;;;;;3.63;1.13;;;;;;;19.58;41.75;99887.28;5012778;28;20275;-59
2022/04/08 05:24:30;;;;;;;5.18;1.13;;;;;;;19.56;42.78;99895.38;5012572;28;20794;-58
2022/04/08 05:26:55;;;;;;;3.17;0.90;;;;;;;19.58;43.38;99893.44;5012747;28;20478;-58
2022/04/08 05:29:20;;;;;;;4.27;1.10;;;;;;;19.62;43.40;99896.56;5012784;28;20806;-58
2022/04/08 05:31:47;;;;;;;4.82;1.13;;;;;;;19.65;43.48;99898.09;5012332;28;20363;-59
2022/04/08 05:34:12;;;;;;;5.18;1.30;;;;;;;19.65;43.69;99888.34;5012693;28;20033;-59
2022/04/08 05:36:38;;;;;;;5.72;1.23;;;;;;;19.69;43.64;99896.78;5013300;28;20369;-57
2022/04/08 05:39:03;;;;;;;4.97;1.33;;;;;;;19.71;43.79;99889.50;5011816;28;20107;-58
2022/04/08 05:41:28;;;;;;;4.70;1.00;;;;;;;19.72;43.74;99878.78;5012683;28;20022;-58
2022/04/08 05:43:54;;;;;;;4.73;1.00;;;;;;;19.74;43.90;99882.09;5012298;28;20267;-58
2022/04/08 05:46:19;;;;;;;3.50;1.00;;;;;;;19.75;43.63;99881.09;5011971;28;20294;-59
2022/04/08 05:48:44;;;;;;;4.70;1.00;;;;;;;19.79;43.81;99888.75;5012821;28;20025;-58
2022/04/08 05:51:16;;;;;;;3.97;1.00;;;;;;;19.80;43.78;99880.66;5011981;28;20278;-58
2022/04/08 05:53:41;;;;;;;3.88;1.40;;;;;;;19.78;43.95;99874.72;5012929;28;20274;-58
2022/04/08 05:56:06;;;;;;;4.37;1.00;;;;;;;19.79;44.35;99873.72;5012483;28;20112;-57
2022/04/08 05:58:31;;;;;;;3.03;1.08;;;;;;;19.75;44.40;99862.59;5011785;28;20315;-57
2022/04/08 06:00:57;;;;;;;6.22;1.10;;;;;;;19.74;44.52;99868.88;5012668;28;20057;-57
2022/04/08 06:03:22;;;;;;;4.85;1.20;;;;;;;19.77;44.61;99865.13;5012824;28;20480;-59
2022/04/08 06:05:50;;;;;;;4.93;1.00;;;;;;;19.80;44.46;99869.25;5011834;28;20030;-59
2022/04/08 06:08:15;;;;;;;3.33;0.90;;;;;;;19.81;44.46;99877.03;5012938;28;20041;-58
2022/04/08 06:10:41;;;;;;;3.15;1.00;;;;;;;19.81;44.71;99870.94;5016221;28;20026;-58
2022/04/08 06:13:06;;;;;;;3.90;1.65;;;;;;;19.84;44.47;99863.50;5015256;28;20133;-63
2022/04/08 06:15:31;;;;;;;4.20;1.20;;;;;;;19.89;44.39;99877.06;5016445;28;20033;-58
2022/04/08 06:17:57;;;;;;;4.80;1.30;;;;;;;19.91;44.25;99863.69;5016072;28;20790;-58
2022/04/08 06:20:25;;;;;;;6.70;1.38;;;;;;;19.94;44.34;99869.47;5015630;28;20042;-58
2022/04/08 06:22:53;;;;;;;4.18;0.95;;;;;;;19.96;44.28;99873.78;5015816;28;20037;-58
2022/04/08 06:25:22;;;;;;;3.65;1.20;;;;;;;19.89;42.51;99877.06;5016184;28;20057;-58
2022/04/08 06:28:06;;;;;;;4.15;1.13;;;;;;;19.87;43.79;99879.06;5015149;28;20502;-58
2022/04/08 06:30:33;;;;;;;4.40;1.30;;;;;;;19.86;44.31;99873.91;5016158;28;20108;-57
2022/04/08 06:33:06;;;;;;;5.90;1.48;;;;;;;19.86;44.56;99879.22;5016016;28;20034;-58
2022/04/08 06:35:34;;;;;;;5.15;1.20;;;;;;;19.82;44.88;99877.84;5015302;28;20550;-57
2022/04/08 06:38:01;;;;;;;4.30;1.08;;;;;;;19.82;44.83;99870.78;5015626;28;20175;-57
2022/04/08 06:40:26;;;;;;;3.80;1.10;;;;;;;19.86;44.90;99872.09;5014538;28;20042;-58
2022/04/08 06:42:59;;;;;;;4.07;1.20;;;;;;;19.88;44.70;99869.28;5015852;28;20367;-58
2022/04/08 06:45:26;;;;;;;3.33;0.90;;;;;;;19.91;44.89;99856.56;5016065;28;20036;-59
2022/04/08 06:47:52;;;;;;;3.17;0.90;;;;;;;19.93;44.88;99856.41;5014856;28;20030;-58
2022/04/08 06:50:20;;;;;;;5.82;1.20;;;;;;;19.94;44.67;99861.53;5015937;28;20034;-58
2022/04/08 06:52:47;;;;;;;4.00;1.23;;;;;;;19.96;44.76;99856.09;5015700;28;20029;-58
2022/04/08 06:55:12;;;;;;;3.75;1.10;;;;;;;19.98;44.50;99856.78;5014656;28;20121;-58
2022/04/08 06:57:38;;;;;;;3.40;1.00;;;;;;;20.00;44.68;99848.69;5015894;28;20049;-58
2022/04/08 07:00:06;;;;;;;3.67;0.88;;;;;;;20.02;44.68;99855.47;5015407;28;20108;-58
2022/04/08 07:02:32;;;;;;;3.25;1.05;;;;;;;20.04;44.49;99855.28;5014801;28;20030;-58
2022/04/08 07:04:57;;;;;;;3.45;0.80;;;;;;;20.10;44.48;99854.66;5015231;28;20110;-58
2022/04/08 07:07:27;;;;;;;3.45;1.02;;;;;;;20.13;44.29;99859.63;5015365;28;20559;-58
2022/04/08 07:09:53;;;;;;;4.45;1.40;;;;;;;20.18;44.31;99861.78;5014711;28;20025;-58
2022/04/08 07:12:18;;;;;;;4.40;0.90;;;;;;;20.19;43.79;99858.97;5014992;28;20030;-58
2022/04/08 07:14:43;;;;;;;5.40;1.43;;;;;;;20.21;43.43;99862.28;5015391;28;20321;-58
2022/04/08 07:17:08;;;;;;;5.40;1.13;;;;;;;20.21;43.72;99853.53;5014635;28;20302;-57
2022/04/08 07:19:34;;;;;;;3.97;1.30;;;;;;;20.26;43.89;99856.50;5014457;28;20038;-57
2022/04/08 07:21:59;;;;;;;6.40;1.15;;;;;;;20.29;43.71;99853.53;5014124;28;20263;-58
2022/04/08 07:24:24;;;;;;;4.15;1.02;;;;;;;20.31;43.74;99843.63;5014706;28;20377;-57
2022/04/08 07:26:50;;;;;;;3.78;1.10;;;;;;;20.33;43.50;99848.75;5015031;28;20382;-58
2022/04/08 07:29:16;;;;;;;3.70;1.05;;;;;;;20.33;43.42;99846.94;5015209;28;20366;-58
2022/04/08 07:31:46;;;;;;;6.38;1.17;;;;;;;20.35;43.44;99844.13;5014462;28;20053;-58
2022/04/08 07:34:12;;;;;;;4.65;1.33;;;;;;;20.37;43.48;99844.78;5014702;28;20037;-56
2022/04/08 07:36:46;;;;;;;2.97;1.10;;;;;;;20.37;43.60;99835.03;5014869;28;20402;-57
2022/04/08 07:39:11;;;;;;;4.93;0.95;;;;;;;20.38;43.45;99836.69;5014621;28;20297;-58
2022/04/08 07:41:39;;;;;;;3.67;1.10;;;;;;;20.40;43.50;99833.88;5015112;28;20120;-58
2022/04/08 07:44:11;;;;;;;4.93;1.20;;;;;;;20.40;43.46;99839.19;5013659;28;20274;-58
2022/04/08 07:46:36;;;;;;;5.00;1.20;;;;;;;20.42;43.59;99842.47;5014651;28;20037;-58
2022/04/08 07:49:01;;;;;;;4.80;1.10;;;;;;;20.42;43.70;99842.47;5014226;28;20105;-58
2022/04/08 07:51:27;;;;;;;3.72;1.00;;;;;;;20.43;43.35;99839.66;5013719;28;20022;-58
2022/04/08 07:53:55;;;;;;;3.45;1.00;;;;;;;20.43;43.02;99837.03;5014144;28;20022;-58
2022/04/08 07:56:20;;;;;;;3.20;1.10;;;;;;;20.45;43.24;99835.03;5014531;28;20031;-58
2022/04/08 07:58:47;;;;;;;4.00;1.00;;;;;;;20.47;43.34;99834.88;5013539;28;20033;-58
2022/04/08 08:01:12;;;;;;;3.80;0.93;;;;;;;20.45;43.28;99829.72;5013908;28;20318;-58
2022/04/08 08:03:38;;;;;;;4.82;1.20;;;;;;;20.47;43.42;99834.88;5014176;28;20029;-58
2022/04/08 08:06:03;;;;;;;7.07;1.53;;;;;;;20.48;43.35;99828.59;5013136;28;20064;-58
2022/04/08 08:08:29;;;;;;;4.03;0.95;;;;;;;20.48;43.02;99825.94;5014098;28;20278;-58
2022/04/08 08:10:57;;;;;;;4.55;1.00;;;;;;;20.47;43.15;99824.28;5013816;28;20101;-59
2022/04/08 08:13:22;;;;;;;5.35;1.00;;;;;;;20.47;43.00;99822.47;5013093;28;20081;-58
2022/04/08 08:15:54;;;;;;;4.07;0.98;;;;;;;20.48;42.83;99826.75;5014196;28;20021;-58
2022/04/08 08:18:21;;;;;;;2.72;0.82;;;;;;;20.49;42.97;99824.97;5013995;28;20457;-58
2022/04/08 08:20:47;;;;;;;2.85;0.85;;;;;;;20.49;42.99;99830.25;5013490;28;20110;-58
2022/04/08 08:23:15;;;;;;;4.60;1.00;;;;;;;20.47;43.21;99830.41;5013928;28;20482;-58
2022/04/08 08:25:44;;;;;;;2.72;0.90;;;;;;;20.48;43.25;99826.75;5014854;28;20056;-59
2022/04/08 08:28:10;;;;;;;4.20;0.80;;;;;;;20.55;43.38;99824.28;5013540;28;20073;-60
2022/04/08 08:30:37;;;;;;;4.93;1.10;;;;;;;20.63;43.36;99815.50;5015254;28;20110;-59
2022/04/08 08:33:04;;;;;;;3.88;1.00;;;;;;;20.74;42.94;99819.69;5012891;28;20116;-59
2022/04/08 08:35:30;;;;;;;6.20;1.25;;;;;;;20.80;42.72;99808.44;5014342;28;20025;-59
2022/04/08 08:37:56;;;;;;;3.97;1.10;;;;;;;20.85;42.43;99800.81;5013842;28;20042;-59
2022/04/08 08:40:21;;;;;;;3.27;1.00;;;;;;;20.90;42.43;99792.34;5013269;28;20117;-59
2022/04/08 08:42:50;;;;;;;3.42;1.00;;;;;;;20.92;42.67;99790.34;5014017;28;20334;-59
2022/04/08 08:45:16;;;;;;;3.70;1.00;;;;;;;20.93;42.17;99786.72;5013921;28;20022;-60
2022/04/08 08:47:48;;;;;;;3.60;1.10;;;;;;;20.95;42.30;99780.28;5013195;28;20513;-59
2022/04/08 08:50:16;;;;;;;5.00;1.15;;;;;;;20.95;42.04;99774.13;5014027;28;20037;-60
2022/04/08 08:52:42;;;;;;;4.65;1.08;;;;;;;20.97;41.92;99777.47;5013978;28;20037;-59
2022/04/08 08:55:08;;;;;;;3.67;1.10;;;;;;;20.95;42.00;99771.50;5012768;28;20064;-59
2022/04/08 08:57:34;;;;;;;4.85;1.20;;;;;;;20.94;41.88;99765.38;5013622;28;20022;-59
2022/04/08 09:00:20;;;;;;;4.63;1.10;;;;;;;20.96;42.08;99765.22;5013190;28;20026;-59
2022/04/08 09:02:49;;;;;;;3.00;0.77;;;;;;;20.93;41.92;99763.72;5013045;28;20060;-57
2022/04/08 09:05:25;;;;;;;3.83;1.10;;;;;;;20.95;41.68;99764.38;5013639;28;20026;-58
2022/04/08 09:07:55;;;;;;;4.20;1.02;;;;;;;20.96;41.67;99765.22;5013438;28;20026;-58
2022/04/08 09:10:44;;;;;;;4.63;1.05;;;;;;;20.92;41.58;99748.00;5012681;28;20034;-58
2022/04/08 09:13:10;;;;;;;3.90;1.20;;;;;;;20.94;41.61;99757.44;5013534;28;20038;-59
2022/04/08 09:15:39;;;;;;;5.95;1.25;;;;;;;20.93;41.72;99766.34;5013138;28;20160;-58
2022/04/08 09:18:14;;;;;;;3.47;1.10;;;;;;;20.92;41.47;99759.44;5013074;28;20026;-57
2022/04/08 09:20:45;;;;;;;3.30;1.00;;;;;;;20.90;41.71;99763.22;5013449;28;20108;-57
2022/04/08 09:23:12;;;;;;;4.63;1.20;;;;;;;20.87;41.47;99763.56;5012205;28;20042;-58
2022/04/08 09:25:44;;;;;;;4.38;1.17;;;;;;;20.85;41.65;99753.13;5013113;28;20386;-57
2022/04/08 09:28:11;;;;;;;4.47;1.08;;;;;;;20.86;41.51;99760.09;5012833;28;20018;-57
2022/04/08 09:30:37;;;;;;;3.75;1.23;;;;;;;20.83;41.72;99758.59;5011978;28;20099;-57
2022/04/08 09:33:21;;;;;;;4.22;1.17;;;;;;;20.81;41.43;99762.44;5012295;28;20026;-57
2022/04/08 09:35:48;;;;;;;4.38;1.23;;;;;;;20.80;41.43;99758.94;5012775;28;20127;-57
2022/04/08 09:38:19;;;;;;;2.65;0.98;;;;;;;20.77;41.53;99758.47;5012079;28;20033;-57
2022/04/08 09:40:44;;;;;;;5.82;1.00;;;;;;;20.76;41.59;99762.94;5013076;28;20022;-57
2022/04/08 09:43:10;;;;;;;2.58;0.88;;;;;;;20.73;41.59;99765.06;5011950;28;20033;-57
2022/04/08 09:45:38;;;;;;;3.67;0.98;;;;;;;20.72;41.53;99758.13;5011939;28;20049;-57
2022/04/08 09:48:05;;;;;;;3.70;1.02;;;;;;;20.70;41.43;99757.50;5012602;28;20101;-57
2022/04/08 09:50:31;;;;;;;3.28;1.17;;;;;;;20.67;41.54;99756.00;5012082;28;20101;-57
2022/04/08 09:52:56;;;;;;;4.22;1.30;;;;;;;20.65;41.52;99763.28;5012403;28;20030;-57
2022/04/08 09:55:25;;;;;;;3.20;0.90;;;;;;;20.60;41.71;99758.47;5012932;28;20022;-57
2022/04/08 09:58:02;;;;;;;4.18;0.85;;;;;;;20.56;41.69;99757.13;5011647;28;20037;-57
2022/04/08 10:00:28;;;;;;;4.35;1.20;;;;;;;20.52;41.98;99763.75;5012649;28;20029;-58
2022/04/08 10:02:55;;;;;;;2.83;0.90;;;;;;;20.51;41.67;99754.16;5012498;28;20026;-57
2022/04/08 10:05:22;;;;;;;2.85;0.88;;;;;;;20.52;41.62;99757.63;5012205;28;20030;-57
2022/04/08 10:07:49;;;;;;;3.53;1.10;;;;;;;20.51;41.90;99754.16;5012794;28;20105;-57
2022/04/08 10:10:27;;;;;;;4.05;1.15;;;;;;;20.49;41.91;99740.28;5012749;28;20080;-57
2022/04/08 10:13:04;;;;;;;4.72;1.10;;;;;;;20.48;41.94;99760.59;5011514;28;20046;-58
2022/04/08 10:15:43;;;;;;;3.58;1.00;;;;;;;20.45;41.79;99760.94;5013034;28;20026;-58
2022/04/08 10:18:09;;;;;;;4.47;1.10;;;;;;;20.45;41.83;99755.63;5012819;28;20100;-59
2022/04/08 10:20:37;;;;;;;7.28;1.42;;;;;;;20.45;42.02;99753.00;5012581;28;20466;-60
2022/04/08 10:23:16;;;;;;;5.63;1.35;;;;;;;20.46;41.93;99749.38;5012186;28;20026;-60
2022/04/08 10:25:47;;;;;;;4.40;1.00;;;;;;;20.48;41.93;99751.84;5012063;28;20121;-60
2022/04/08 10:28:12;;;;;;;5.00;1.15;;;;;;;20.48;41.93;99747.38;5012404;28;20029;-60
2022/04/08 10:30:46;;;;;;;4.00;1.03;;;;;;;20.46;41.78;99745.91;5012521;28;20026;-60
2022/04/08 10:33:13;;;;;;;4.18;1.00;;;;;;;20.45;41.83;99742.41;5011483;28;20627;-61
2022/04/08 10:35:51;;;;;;;4.63;1.10;;;;;;;20.46;41.76;99743.25;5012407;28;20037;-60
2022/04/08 10:38:16;;;;;;;6.30;1.33;;;;;;;20.45;41.73;99729.16;5012641;28;20038;-60
2022/04/08 10:40:52;;;;;;;4.00;1.10;;;;;;;20.48;41.84;99728.03;5012273;28;20030;-60
2022/04/08 10:43:18;;;;;;;5.53;1.38;;;;;;;20.50;41.98;99726.03;5012463;28;20063;-59
2022/04/08 10:45:58;;;;;;;3.75;1.10;;;;;;;20.51;41.86;99734.81;5012367;28;20022;-60
2022/04/08 10:48:33;;;;;;;5.25;1.27;;;;;;;20.52;41.45;99729.34;5011620;28;20525;-59
2022/04/08 10:51:14;;;;;;;6.40;1.20;;;;;;;20.53;41.52;99736.28;5011704;28;20474;-59
2022/04/08 10:53:41;;;;;;;2.47;0.88;;;;;;;20.55;41.35;99733.47;5011563;28;20480;-57
2022/04/08 10:56:10;;;;;;;4.43;1.05;;;;;;;20.56;41.25;99735.13;5014829;28;20021;-57
2022/04/08 10:58:47;;;;;;;4.70;1.13;;;;;;;20.55;41.35;99739.56;5015464;28;20060;-57
2022/04/08 11:01:22;;;;;;;5.43;0.90;;;;;;;20.56;41.20;99740.44;5014586;28;20030;-58
2022/04/08 11:04:01;;;;;;;6.22;1.48;;;;;;;20.50;41.54;99733.97;5015335;28;20034;-58
2022/04/08 11:06:28;;;;;;;3.00;0.90;;;;;;;20.50;41.66;99731.31;5015338;28;20377;-58
2022/04/08 11:09:17;;;;;;;2.70;1.00;;;;;;;20.50;41.69;99722.56;5014019;28;20462;-59
2022/04/08 11:11:44;;;;;;;4.65;1.20;;;;;;;20.51;41.81;99713.63;5015335;28;20176;-59
2022/04/08 11:14:10;;;;;;;3.90;0.98;;;;;;;20.50;41.67;99706.69;5014706;28;20044;-58
2022/04/08 11:16:40;;;;;;;6.32;2.33;;;;;;;20.48;41.66;99715.59;5014221;28;20068;-57
2022/04/08 11:19:09;;;;;;;4.65;1.20;;;;;;;20.47;41.65;99719.28;5014440;28;20504;-58
2022/04/08 11:21:36;;;;;;;4.80;1.15;;;;;;;20.45;41.67;99710.66;5014771;28;20041;-59
2022/04/08 11:24:08;;;;;;;4.15;1.10;;;;;;;20.44;41.62;99701.06;5013953;28;20041;-59
2022/04/08 11:26:51;;;;;;;4.32;1.20;;;;;;;20.40;41.72;99698.94;5014911;28;20213;-59
2022/04/08 11:29:19;;;;;;;4.63;1.00;;;;;;;20.39;41.96;99695.44;5013821;28;20046;-58
2022/04/08 11:31:46;;;;;;;4.28;1.20;;;;;;;20.38;41.78;99695.63;5014591;28;20040;-58
2022/04/08 11:34:13;;;;;;;4.10;1.00;;;;;;;20.37;41.92;99691.31;5014237;28;20500;-59
2022/04/08 11:36:39;;;;;;;3.50;1.00;;;;;;;20.33;41.81;99680.25;5014200;28;20336;-59